Flight Track Log - Related Links

Times and Time Zones

All times are in EDT time to prevent confusion due to time zone crossing. See the FDX1405 flight status page for this flight to view local times or setup timezone preferences in your user account.

Time Position Orientation Groundspeed Altitude Reporting Facility
EDT Latitude Longitude Course Direction KTS MPH feet Rate Location/Type
Fri 05:07:27 AM 35.0167 -89.9833 195° South 193 222 1,200  Level KMEM
Fri 05:08:27 AM 34.9667 -90.0000 195° South 239 275 3,800 3,143 Climbing KMEM
Fri 05:09:33 AM 34.9500 -90.1000 259° West 289 333 7,800 3,333 Climbing KMEM
Fri 05:10:33 AM 35.0000 -90.1500 321° Northwest 318 366 10,800 2,255 Climbing KMEM
Fri 05:12:02 AM 35.1553 -90.1386 North 391 450 13,400 1,933 Climbing Memphis Center
Fri 05:13:02 AM 35.2761 -90.1181 North 417 480 15,600 2,250 Climbing Memphis Center
Fri 05:14:02 AM 35.4056 -90.0997 North 446 513 17,900 2,300 Climbing Memphis Center
Fri 05:15:02 AM 35.5389 -90.0789 North 469 540 20,200 2,159 Climbing Memphis Center
Fri 05:21:10 AM 36.4100 -90.0560 North 504 580 33,300 1,990 Climbing FlightAware ADS-B
Fri 05:21:58 AM 36.5230 -90.0440 North 500 575 34,000 457 Climbing FlightAware ADS-B
Fri 05:22:42 AM 36.6230 -90.0340 North 503 579 34,000 525 Level FlightAware ADS-B
Fri 05:23:18 AM 36.7080 -90.0250 North 506 582 34,700 769 Climbing FlightAware ADS-B
Fri 05:24:00 AM 36.8060 -90.0150 North 494 568 35,000 220 Climbing FlightAware ADS-B
Fri 05:24:40 AM 36.8970 -90.0050 North 494 568 35,000  Level FlightAware ADS-B
Fri 05:25:20 AM 36.9830 -89.9950 North 495 570 35,000  Level FlightAware ADS-B
Fri 05:26:09 AM 37.0900 -89.9850 North 495 570 35,000  Level FlightAware ADS-B
Fri 05:26:57 AM 37.1830 -89.9770 North 495 570 35,000  Level FlightAware ADS-B
Fri 05:27:33 AM 37.2530 -89.9710 North 495 570 35,000  Level FlightAware ADS-B
Fri 05:28:16 AM 37.3930 -89.9520 North 498 573 35,000  Level FlightAware ADS-B
Fri 05:29:10 AM 37.5180 -89.9380 North 498 573 35,000  Level FlightAware ADS-B
Fri 05:29:54 AM 37.6030 -89.9310 North 498 573 35,000  Level FlightAware ADS-B
Fri 05:30:39 AM 37.7210 -89.9160 North 499 574 35,000  Level FlightAware ADS-B
Fri 05:31:16 AM 37.7940 -89.9100 North 499 574 35,000  Level FlightAware ADS-B
Fri 05:32:05 AM 37.8900 -89.9010 North 499 574 35,000  Level FlightAware ADS-B
Fri 05:32:16 AM 37.9390 -89.8660 29° Northeast 498 573 35,000  Level FlightAware ADS-B
Fri 05:33:00 AM 38.0350 -89.8220 20° North 499 574 35,000  Level FlightAware ADS-B
Fri 05:33:35 AM 38.1130 -89.7870 19° North 500 575 35,000  Level FlightAware ADS-B
Fri 05:34:36 AM 38.2460 -89.7260 20° North 497 572 35,000  Level FlightAware ADS-B
Fri 05:35:17 AM 38.3240 -89.6900 20° North 496 571 35,000  Level FlightAware ADS-B
Fri 05:36:13 AM 38.4570 -89.6290 20° North 497 572 35,000  Level FlightAware ADS-B
Fri 05:36:56 AM 38.5450 -89.5880 20° North 503 579 35,000  Level FlightAware ADS-B
Fri 05:37:31 AM 38.6250 -89.5510 20° North 509 586 35,000  Level FlightAware ADS-B
Fri 05:38:13 AM 38.7210 -89.5070 20° North 508 585 35,000  Level FlightAware ADS-B
Fri 05:38:51 AM 38.7900 -89.4750 20° North 508 585 35,000  Level FlightAware ADS-B
Fri 05:39:31 AM 38.8750 -89.4350 20° North 505 581 35,000  Level FlightAware ADS-B
Fri 05:40:09 AM 38.9730 -89.3890 20° North 509 586 35,000  Level FlightAware ADS-B
Fri 05:40:56 AM 39.0800 -89.3380 20° North 507 583 35,000  Level FlightAware ADS-B
Fri 05:41:34 AM 39.1630 -89.2990 20° North 506 582 35,000  Level FlightAware ADS-B
Fri 05:42:19 AM 39.2550 -89.2560 20° North 504 580 35,000  Level FlightAware ADS-B
Fri 05:43:01 AM 39.3340 -89.2190 20° North 503 579 35,000  Level FlightAware ADS-B
Fri 05:43:42 AM 39.4430 -89.1660 21° North 506 582 35,000  Level FlightAware ADS-B
Fri 05:44:23 AM 39.5340 -89.1240 20° North 504 580 35,000  Level FlightAware ADS-B
Fri 05:44:59 AM 39.6140 -89.0850 21° North 504 580 35,000  Level FlightAware ADS-B
Fri 05:45:41 AM 39.7060 -89.0410 20° North 505 581 35,000  Level FlightAware ADS-B
Fri 05:46:19 AM 39.7910 -89.0000 20° North 505 581 35,000  Level FlightAware ADS-B
Fri 05:46:59 AM 39.8770 -88.9580 21° North 505 581 35,000  Level FlightAware ADS-B
Fri 05:47:39 AM 39.9630 -88.9170 20° North 505 581 35,000  Level FlightAware ADS-B
Fri 05:48:20 AM 40.0530 -88.8730 21° North 505 581 35,000  Level FlightAware ADS-B
Fri 05:48:55 AM 40.1100 -88.8460 20° North 505 581 35,000  Level FlightAware ADS-B
Fri 05:49:38 AM 40.1970 -88.8040 20° North 506 582 35,000 -907 Level FlightAware ADS-B
Fri 05:50:21 AM 40.3220 -88.7430 20° North 505 581 33,700 -2,069 Descending FlightAware ADS-B
Fri 05:51:05 AM 40.4170 -88.6960 21° North 498 573 32,000 -2,329 Descending FlightAware ADS-B
Fri 05:51:46 AM 40.5040 -88.6520 21° North 487 560 30,400 -2,296 Descending FlightAware ADS-B
Fri 05:52:26 AM 40.5880 -88.6110 20° North 477 549 28,900 -2,233 Descending FlightAware ADS-B
Fri 05:53:12 AM 40.6830 -88.5650 20° North 464 534 27,200 -2,154 Descending FlightAware ADS-B
Fri 05:53:44 AM 40.7440 -88.5340 21° North 455 524 26,100 -2,368 Descending FlightAware ADS-B
Fri 05:54:28 AM 40.8320 -88.4910 20° North 453 521 24,200 -2,634 Descending FlightAware ADS-B
Fri 05:55:06 AM 40.9070 -88.4540 20° North 449 517 22,500 -2,605 Descending FlightAware ADS-B
Fri 05:55:44 AM 40.9790 -88.4190 20° North 447 514 20,900 -2,341 Descending FlightAware ADS-B
Fri 05:56:28 AM 41.0640 -88.3750 21° North 435 501 19,300 -2,143 Descending FlightAware ADS-B
Fri 05:57:08 AM 41.1390 -88.3370 21° North 425 489 17,900 -2,000 Descending FlightAware ADS-B
Fri 05:57:52 AM 41.2180 -88.2980 20° North 415 478 16,500 -1,929 Descending FlightAware ADS-B
Fri 05:58:32 AM 41.2890 -88.2610 21° North 407 468 15,200 -1,929 Descending FlightAware ADS-B
Fri 05:59:16 AM 41.3670 -88.2230 20° North 397 457 13,800 -1,902 Descending FlightAware ADS-B
Fri 05:59:54 AM 41.4310 -88.1900 21° North 390 449 12,600 -1,816 Descending FlightAware ADS-B
Fri 06:00:32 AM 41.4950 -88.1580 21° North 382 440 11,500 -1,231 Descending FlightAware ADS-B
Fri 06:01:12 AM 41.5600 -88.1240 21° North 374 430 11,000 -357 Descending FlightAware ADS-B
Fri 06:01:56 AM 41.6330 -88.0930 18° North 376 433 11,000  Level FlightAware ADS-B
Fri 06:02:27 AM 41.6810 -88.0860 North 367 422 11,000 -324 Level FlightAware ADS-B
Fri 06:03:10 AM 41.7270 -88.0830 North 347 399 10,600 -943 Descending FlightAware ADS-B
Fri 06:03:37 AM 41.7910 -88.0770 North 317 365 9,900 -1,395 Descending FlightAware ADS-B
Fri 06:03:53 AM 41.8170 -88.0750 North 305 351 9,600 -878 Descending FlightAware ADS-B
Fri 06:04:18 AM 41.8500 -88.0740 North 293 337 9,300 -1,017 Descending FlightAware ADS-B
Fri 06:04:52 AM 41.8970 -88.0710 North 290 334 8,600 -1,277 Descending FlightAware ADS-B
Fri 06:05:05 AM 41.9160 -88.0700 North 288 331 8,300 -1,200 Descending FlightAware ADS-B
Fri 06:05:17 AM 41.9310 -88.0690 North 287 330 8,100 -857 Descending FlightAware ADS-B
Fri 06:05:33 AM 41.9500 -88.0760 345° North 269 310 7,900 -750 Descending FlightAware ADS-B
Fri 06:05:49 AM 41.9650 -88.0940 318° Northwest 251 289 7,700 -769 Descending FlightAware ADS-B
Fri 06:06:12 AM 41.9840 -88.1160 319° Northwest 244 281 7,400 -766 Descending FlightAware ADS-B
Fri 06:06:36 AM 42.0040 -88.1350 325° Northwest 226 260 7,100 -621 Descending FlightAware ADS-B
Fri 06:07:10 AM 42.0280 -88.1600 322° Northwest 217 250 6,800 -638 Descending FlightAware ADS-B
Fri 06:07:23 AM 42.0390 -88.1710 323° Northwest 215 247 6,600 -1,091 Descending FlightAware ADS-B
Fri 06:07:43 AM 42.0600 -88.1910 325° Northwest 214 246 6,200 -1,125 Descending FlightAware ADS-B
Fri 06:08:11 AM 42.0840 -88.2100 330° Northwest 225 259 5,700 -1,220 Descending FlightAware ADS-B
Fri 06:08:42 AM 42.1160 -88.1930 22° Northeast 260 299 5,000 -1,395 Descending FlightAware ADS-B
Fri 06:08:54 AM 42.1250 -88.1780 51° Northeast 261 300 4,700 -1,286 Descending FlightAware ADS-B
Fri 06:09:10 AM 42.1310 -88.1550 71° East 264 304 4,400 -1,038 Descending FlightAware ADS-B
Fri 06:09:46 AM 42.1230 -88.0970 101° East 249 287 3,800 -774 Descending FlightAware ADS-B
Fri 06:10:12 AM 42.1160 -88.0610 105° East 225 259 3,600 -571 Descending FlightAware ADS-B
Fri 06:10:28 AM 42.1060 -88.0440 128° Southeast 195 224 3,400 -955 Descending FlightAware ADS-B
Fri 06:10:56 AM 42.0840 -88.0320 158° South 185 213 2,900 -923 Descending FlightAware ADS-B
Fri 06:11:20 AM 42.0660 -88.0180 150° Southeast 190 219 2,600 -732 Descending FlightAware ADS-B
Fri 06:11:37 AM 42.0550 -88.0060 141° Southeast 190 219 2,400 -783 Descending FlightAware ADS-B
Fri 06:12:06 AM 42.0370 -87.9860 140° Southeast 188 216 2,000 -982 Descending FlightAware ADS-B
Fri 06:12:32 AM 42.0180 -87.9640 139° Southeast 182 209 1,500 -1,200 Descending FlightAware ADS-B
Fri 06:12:46 AM 42.0090 -87.9550 143° Southeast 179 206 1,200 -906 Descending FlightAware ADS-B
Fri 06:13:25 AM 41.9850 -87.9270 139° Southeast 166 191 700 -769 Descending FlightAware ADS-B
Fri 06:15:51 AM 41.9700 -87.9200 161° South 21 24 -288 Descending FlightAware ADS-B
Fri 06:16:42 AM 41.9700 -87.9270 270° West 31 36  Level FlightAware ADS-B
Fri 06:17:15 AM 41.9670 -87.9270 180° South 16 18  Level FlightAware ADS-B
Fri 06:17:53 AM 41.9640 -87.9270 180° South 32 37  Level FlightAware ADS-B
Fri 06:18:18 AM 41.9630 -87.9270 180° South 24 28  Level FlightAware ADS-B

Login

Don't have an account? Register now (free) for customized features, flight alerts, and more!